Overview Statistics Trail Chart Weather Telemetry Raw packets
 

This is the latest recevied weather packets stored in our database for station/object WABI. If no packets are shown the sender has not sent any weather packets the latest 10 day(s).

<< 3 4 5 6 7 8 9 >>
Time Temp. Humidity Pressure Rain* Wind** Luminosity Snow
1787899826 31.11° C 66% 1009 hPa 0 mm - - -
1787897853 31.11° C 66% 1010 hPa 0 mm - - -
1787895891 32.22° C 63% 1010 hPa 0 mm - - -
1787893916 32.22° C 67% 1011 hPa 0 mm - - -
1787891954 32.22° C 63% 1012 hPa 0 mm - - -
1787889981 32.78° C 53% 1012 hPa 0 mm - - -
1787888015 32.78° C 49% 1012 hPa 0 mm - - -
1787886058 32.78° C 53% 1013 hPa 0 mm - - -
1787884105 32.22° C 56% 1013 hPa 0 mm - - -
1787882152 31.11° C 62% 1013 hPa 0 mm - - -
1787864847 25° C 83% 1012 hPa 0 mm - - -
1787862922 25° C 83% 1012 hPa 0 mm - - -
1787860993 25° C 83% 1012 hPa 0 mm - - -
1787859060 25° C 83% 1012 hPa 0 mm - - -
1787857123 25° C 83% 1012 hPa 0 mm - - -
1787855192 25° C 83% 1012 hPa 0 mm - - -
1787853243 25° C 83% 1012 hPa 0 mm - - -
1787849080 25° C 89% 1013 hPa 0 mm - - -
1787847096 25° C 89% 1013 hPa 0 mm - - -
1787843008 25° C 94% 1013 hPa 0 mm - - -
1787840794 25° C 94% 1013 hPa 0 mm - - -
1787834106 25° C 94% 1013 hPa 0 mm - - -
1787829757 26.11° C 89% 1011 hPa 0 mm - - -
1787827649 28.89° C 74% 1010 hPa 0 mm - - -
1787825485 28.89° C 74% 1010 hPa 0 mm - - -

* Rain latest hour (hover to see other rain measurements)
** Current wind speed in m/s (hover to see current wind gust speed)